Flight Track Log - Related Links

Times and Time Zones

All times are in EDT time to prevent confusion due to time zone crossing. See the EGF2986 flight status page for this flight to view local times or setup timezone preferences in your user account.

Time Position Orientation Groundspeed Altitude Reporting Facility
EDT Latitude Longitude Course Direction KTS MPH feet Rate Location/Type
Thu 10:13:32 AM 31.1075 -97.8120 268° West  Level FlightAware
Thu 10:14:32 AM 31.0839 -97.9012 30° Northeast  Level FlightAware
Thu 10:14:48 AM 31.1058 -97.8864 350° North 215 247 3,500  Level Fort Center
Thu 10:19:45 AM 31.4417 -97.9564 North 363 418 13,400 2,017 Climbing Fort Center
Thu 10:20:45 AM 31.5483 -97.9447 North 389 448 15,500 1,800 Climbing Fort Center
Thu 10:21:45 AM 31.6506 -97.9406 322° Northwest 384 442 17,000 750 Climbing Fort Center
Thu 10:22:45 AM 31.7294 -98.0142 319° Northwest 348 400 17,000  Level Fort Center
Thu 10:23:45 AM 31.8044 -98.0906 343° North 354 407 17,000  Level Fort Center
Thu 10:24:45 AM 31.9022 -98.1256 43° Northeast 330 380 17,000  Level Fort Center
Thu 10:25:45 AM 31.9778 -98.0428 42° Northeast 315 362 17,000  Level Fort Center
Thu 10:26:45 AM 32.0639 -97.9528 41° Northeast 353 406 17,000  Level Fort Center
Thu 10:27:45 AM 32.1372 -97.8772 41° Northeast 381 438 17,000 -471 Level Fort Center
Thu 10:28:27 AM 32.1969 -97.8161 42° Northeast 369 425 16,200 -1,185 Descending FAA TRACON
Thu 10:29:06 AM 32.2436 -97.7667 43° Northeast 364 419 15,400 -1,367 Descending FAA TRACON
Thu 10:29:46 AM 32.2953 -97.7097 42° Northeast 368 423 14,400 -1,575 Descending FAA TRACON
Thu 10:30:26 AM 32.3514 -97.6506 47° Northeast 394 453 13,300 -1,575 Descending FAA TRACON
Thu 10:31:06 AM 32.3972 -97.5917 45° Northeast 393 452 12,300 -1,650 Descending FAA TRACON
Thu 10:31:46 AM 32.4503 -97.5289 45° Northeast 389 448 11,100 -975 Descending FAA TRACON
Thu 10:32:26 AM 32.5017 -97.4669 46° Northeast 381 438 11,000 -73 Descending FAA TRACON
Thu 10:33:08 AM 32.5531 -97.4039 45° Northeast 384 442 11,000  Level FAA TRACON
Thu 10:33:47 AM 32.5992 -97.3483 46° Northeast 384 442 11,000  Level FAA TRACON
Thu 10:34:26 AM 32.6492 -97.2872 45° Northeast 354 407 11,000  Level FAA TRACON
Thu 10:35:06 AM 32.6906 -97.2381 47° Northeast 306 352 11,000  Level FAA TRACON
Thu 10:35:46 AM 32.7225 -97.1978 31° Northeast 261 300 11,000  Level FAA TRACON
Thu 10:36:27 AM 32.7633 -97.1689 360° North 265 305 11,000  Level FAA TRACON
Thu 10:37:07 AM 32.8144 -97.1689 359° North 265 305 11,000 -684 Level FAA TRACON
Thu 10:37:46 AM 32.8597 -97.1703 North 252 290 10,100 -1,823 Descending FAA TRACON
Thu 10:38:26 AM 32.9019 -97.1692 North 246 283 8,600 -2,400 Descending FAA TRACON
Thu 10:39:06 AM 32.9486 -97.1675 North 252 290 6,900 -2,400 Descending FAA TRACON
Thu 10:39:46 AM 32.9961 -97.1611 North 244 281 5,400 -1,425 Descending FAA TRACON
Thu 10:40:26 AM 33.0342 -97.1553 13° North 225 259 5,000 -1,259 Descending FAA TRACON
Thu 10:41:07 AM 33.0775 -97.1436 61° Northeast 228 262 3,700 -1,481 Descending FAA TRACON
Thu 10:41:47 AM 33.0953 -97.1047 61° Northeast 221 254 3,000 -1,050 Descending FAA TRACON

Login

Don't have an account? Register now (free) for customized features, flight alerts, and more!